Time;durP1;ratioP1;P1;durP2;ratioP2;P2;SDS_P1;SDS_P2;PMS_P1;PMS_P2;Temp;Humidity;BMP_temperature;BMP_pressure;BME280_temperature;BME280_humidity;BME280_pressure;Samples;Min_cycle;Max_cycle;Signal;HPM_P1;HPM_P2
2022/07/04 00:07:59;;;;;;;10.25;2.53;;;19.90;99.90;;;;;;20837264;28;20087;-74
2022/07/04 00:18:00;;;;;;;4.27;2.00;;;19.70;99.90;;;;;;20836579;28;20382;-74
2022/07/04 00:28:01;;;;;;;4.67;1.90;;;19.70;99.90;;;;;;20834341;28;20090;-74
2022/07/04 00:38:01;;;;;;;6.80;2.00;;;19.70;99.90;;;;;;20835887;28;20033;-74
2022/07/04 00:48:02;;;;;;;2.20;2.00;;;19.90;99.90;;;;;;20835278;28;20421;-75
2022/07/04 00:58:03;;;;;;;5.37;1.90;;;19.60;99.90;;;;;;20835351;28;20053;-75
2022/07/04 01:08:05;;;;;;;4.30;1.53;;;19.80;99.90;;;;;;20833664;28;20025;-75
2022/07/04 01:18:06;;;;;;;6.53;1.98;;;19.80;99.90;;;;;;20835814;28;20041;-75
2022/07/04 01:28:07;;;;;;;6.27;1.93;;;19.60;99.90;;;;;;20834905;28;20030;-75
2022/07/04 01:38:07;;;;;;;2.63;1.90;;;19.00;99.90;;;;;;20834587;28;20041;-75
2022/07/04 01:48:11;;;;;;;4.50;1.80;;;18.80;99.90;;;;;;20832136;28;20482;-75
2022/07/04 01:58:12;;;;;;;3.35;2.17;;;18.80;99.90;;;;;;20832086;28;20053;-75
2022/07/04 02:08:13;;;;;;;8.87;3.13;;;18.80;99.90;;;;;;20828991;28;20040;-75
2022/07/04 02:18:14;;;;;;;6.20;3.10;;;18.70;99.90;;;;;;20801941;23;20528;-75
2022/07/04 02:28:15;;;;;;;5.57;2.75;;;18.50;99.90;;;;;;20745403;28;20080;-75
2022/07/04 02:38:16;;;;;;;5.17;2.47;;;18.30;99.90;;;;;;20746037;28;20038;-75
2022/07/04 02:48:16;;;;;;;4.27;2.00;;;18.30;99.90;;;;;;20750051;28;20493;-75
2022/07/04 02:58:17;;;;;;;3.53;2.00;;;18.40;99.90;;;;;;20749838;28;20619;-75
2022/07/04 03:08:18;;;;;;;8.40;2.10;;;18.50;99.90;;;;;;20749714;28;20033;-75
2022/07/04 03:18:20;;;;;;;6.63;2.78;;;18.50;99.90;;;;;;20744092;28;20048;-75
2022/07/04 03:28:20;;;;;;;3.58;2.70;;;18.10;99.90;;;;;;20746365;28;20052;-75
2022/07/04 03:38:21;;;;;;;6.53;2.90;;;18.10;99.90;;;;;;20743616;28;20041;-74
2022/07/04 03:48:22;;;;;;;4.33;2.50;;;17.90;99.90;;;;;;20722467;28;20553;-75
2022/07/04 03:58:23;;;;;;;6.03;3.00;;;17.90;99.90;;;;;;20740849;28;20026;-74
2022/07/04 04:08:24;;;;;;;8.90;2.27;;;17.90;99.90;;;;;;20738057;28;20057;-74
2022/07/04 04:18:24;;;;;;;5.20;2.60;;;18.00;99.90;;;;;;20742969;28;20040;-74
2022/07/04 04:28:25;;;;;;;6.97;2.67;;;18.00;99.90;;;;;;20737638;28;20061;-77
2022/07/04 04:38:26;;;;;;;7.57;3.23;;;18.10;99.90;;;;;;20754516;28;20494;-75
2022/07/04 04:48:27;;;;;;;4.70;3.70;;;17.70;99.90;;;;;;20762862;28;20116;-76
2022/07/04 04:58:28;;;;;;;5.93;2.73;;;18.00;99.90;;;;;;20752637;28;20034;-76
2022/07/04 05:08:28;;;;;;;9.20;3.27;;;17.90;99.90;;;;;;20756854;28;20029;-77
2022/07/04 05:18:29;;;;;;;4.00;2.77;;;18.10;99.90;;;;;;20764589;28;20084;-77
2022/07/04 05:28:30;;;;;;;4.53;2.80;;;18.20;99.90;;;;;;20766413;28;20041;-78
2022/07/04 05:38:31;;;;;;;6.40;3.40;;;18.30;99.90;;;;;;20752630;28;20490;-78
2022/07/04 05:48:32;;;;;;;7.77;4.70;;;18.20;99.90;;;;;;20768438;28;20025;-79
2022/07/04 05:58:33;;;;;;;6.97;4.03;;;18.20;99.90;;;;;;20765926;28;20279;-77
2022/07/04 06:08:34;;;;;;;8.33;4.97;;;18.20;99.90;;;;;;20772690;28;20053;-77
2022/07/04 06:18:34;;;;;;;6.50;3.33;;;17.90;99.90;;;;;;20763572;28;20181;-78
2022/07/04 06:28:35;;;;;;;7.57;2.90;;;18.00;99.90;;;;;;20765834;28;20080;-80
2022/07/04 06:38:36;;;;;;;6.20;2.33;;;18.50;99.90;;;;;;20763729;28;20045;-79
2022/07/04 06:48:37;;;;;;;8.47;2.40;;;19.10;99.90;;;;;;20763366;28;20096;-79
2022/07/04 06:58:38;;;;;;;6.60;2.63;;;19.60;99.90;;;;;;20764769;28;20028;-79
2022/07/04 07:08:39;;;;;;;5.70;2.40;;;19.90;99.90;;;;;;20763363;28;20121;-79
2022/07/04 07:18:40;;;;;;;6.37;2.60;;;20.00;99.90;;;;;;20764548;28;20034;-78
2022/07/04 07:28:42;;;;;;;3.63;1.83;;;20.50;99.90;;;;;;20766273;28;20030;-78
2022/07/04 07:38:42;;;;;;;7.40;1.77;;;21.10;99.90;;;;;;20771970;28;20121;-79
2022/07/04 07:48:43;;;;;;;3.60;2.10;;;21.70;99.90;;;;;;20732013;28;20065;-79
2022/07/04 07:58:44;;;;;;;8.87;2.60;;;21.80;99.90;;;;;;20779758;28;20026;-79
2022/07/04 08:08:45;;;;;;;5.30;2.70;;;22.40;99.90;;;;;;20761479;28;20044;-79
2022/07/04 08:18:46;;;;;;;4.17;2.50;;;22.60;99.90;;;;;;20814523;23;20088;-78
2022/07/04 08:28:47;;;;;;;4.15;1.98;;;22.30;99.90;;;;;;20819744;28;20393;-78
2022/07/04 08:38:48;;;;;;;6.13;2.17;;;22.70;99.90;;;;;;20775462;28;20037;-78
2022/07/04 08:48:52;;;;;;;6.82;1.95;;;22.60;99.90;;;;;;20780127;28;20477;-79
2022/07/04 08:58:55;;;;;;;5.22;1.50;;;23.20;99.90;;;;;;20769911;28;20507;-78
2022/07/04 09:08:56;;;;;;;4.18;2.00;;;23.40;99.90;;;;;;20766413;28;20029;-78
2022/07/04 09:18:57;;;;;;;2.80;1.90;;;23.60;99.90;;;;;;20766457;28;20456;-78
2022/07/04 09:28:58;;;;;;;3.30;1.60;;;23.60;99.90;;;;;;20765023;28;20029;-78
2022/07/04 09:39:18;;;;;;;2.60;1.40;;;24.20;99.90;;;;;;20764991;28;20053;-76
2022/07/04 09:49:20;;;;;;;4.40;1.80;;;24.80;99.90;;;;;;20745844;28;20069;-78
2022/07/04 09:59:22;;;;;;;5.28;2.08;;;24.30;99.90;;;;;;20740657;28;20092;-78
2022/07/04 10:09:28;;;;;;;3.22;1.67;;;24.90;99.90;;;;;;20762287;28;20038;-78
2022/07/04 10:19:29;;;;;;;4.43;1.38;;;23.30;99.90;;;;;;20750996;28;20034;-77
2022/07/04 10:29:30;;;;;;;3.88;2.58;;;24.50;99.90;;;;;;20753935;28;20065;-78
2022/07/04 10:39:33;;;;;;;3.55;1.42;;;25.20;99.90;;;;;;20748869;28;20109;-76
2022/07/04 10:49:34;;;;;;;3.58;1.70;;;25.90;99.90;;;;;;20753176;28;20126;-76
2022/07/04 10:59:35;;;;;;;2.22;1.35;;;25.70;99.90;;;;;;20760900;28;20041;-78
2022/07/04 11:09:36;;;;;;;;;;;25.10;99.90;;;;;;20759638;28;20069;-77
2022/07/04 11:19:38;;;;;;;4.63;1.60;;;25.40;99.90;;;;;;20754509;28;19913;-77
2022/07/04 11:29:48;;;;;;;2.50;1.00;;;26.00;99.90;;;;;;20764705;28;20026;-78
2022/07/04 11:45:02;;;;;;;2.53;1.37;;;26.30;99.90;;;;;;20773633;28;20030;-78
2022/07/04 11:50:19;;;;;;;3.38;1.50;;;25.20;99.90;;;;;;20773779;28;20059;-77
2022/07/04 12:00:26;;;;;;;4.03;1.60;;;24.40;99.90;;;;;;20771623;28;20444;-76
2022/07/04 12:10:27;;;;;;;2.67;1.23;;;24.20;99.90;;;;;;20778209;28;20044;-78
2022/07/04 12:20:29;;;;;;;3.53;1.48;;;24.40;99.90;;;;;;20774624;28;20058;-78
2022/07/04 12:30:33;;;;;;;2.67;1.42;;;24.40;99.90;;;;;;20772096;28;20038;-78
2022/07/04 12:40:36;;;;;;;10.65;2.58;;;25.20;99.90;;;;;;20774787;28;20117;-78
2022/07/04 12:50:37;;;;;;;2.60;1.40;;;25.20;99.90;;;;;;20755199;28;20038;-77
2022/07/04 13:00:39;;;;;;;6.07;1.48;;;25.90;99.90;;;;;;20770748;28;20122;-78
2022/07/04 13:10:40;;;;;;;5.35;1.75;;;25.70;99.90;;;;;;20769991;28;20098;-77
2022/07/04 13:20:40;;;;;;;;;;;25.30;99.90;;;;;;20740869;28;20033;-76
2022/07/04 13:30:41;;;;;;;4.27;1.27;;;24.20;99.90;;;;;;20750061;28;20003;-76
2022/07/04 13:40:43;;;;;;;1.60;1.30;;;23.70;99.90;;;;;;20748696;28;20781;-76
2022/07/04 13:50:43;;;;;;;1.77;1.50;;;23.40;99.90;;;;;;20747661;28;20125;-76
2022/07/04 14:00:45;;;;;;;3.97;1.30;;;23.20;99.90;;;;;;20729595;28;20069;-76
2022/07/04 14:10:46;;;;;;;3.15;1.50;;;22.90;99.90;;;;;;20746408;28;20517;-77
2022/07/04 14:20:48;;;;;;;2.20;1.50;;;22.60;99.90;;;;;;20823112;23;20060;-78
2022/07/04 14:30:49;;;;;;;8.82;2.65;;;22.10;99.90;;;;;;20902255;28;20037;-77
2022/07/04 14:40:50;;;;;;;3.13;1.80;;;22.10;99.90;;;;;;20937232;28;20483;-78
2022/07/04 14:50:51;;;;;;;4.23;1.50;;;22.30;99.90;;;;;;20870483;28;20056;-80
2022/07/04 15:00:53;;;;;;;6.07;2.00;;;22.70;99.90;;;;;;20804292;28;20054;-79
2022/07/04 15:10:54;;;;;;;2.67;1.90;;;22.60;99.90;;;;;;20845228;28;20491;-78
2022/07/04 15:31:14;;;;;;;4.95;1.60;;;23.00;99.90;;;;;;20878812;28;20283;-80
2022/07/04 15:41:15;;;;;;;3.20;1.80;;;22.70;99.90;;;;;;20873595;28;20029;-80
2022/07/04 15:51:16;;;;;;;2.88;1.70;;;22.80;99.90;;;;;;20829834;28;20026;-79
2022/07/04 16:01:17;;;;;;;3.30;1.50;;;22.90;99.90;;;;;;20854289;28;20044;-78
2022/07/04 16:11:18;;;;;;;5.00;1.90;;;22.70;99.90;;;;;;20803742;28;20029;-78
2022/07/04 16:21:19;;;;;;;3.33;1.90;;;22.70;99.90;;;;;;20826939;28;20045;-79
2022/07/04 16:31:20;;;;;;;5.28;1.50;;;22.60;99.90;;;;;;20848263;28;20437;-79
2022/07/04 16:41:21;;;;;;;3.80;1.60;;;22.60;99.90;;;;;;20859638;28;20037;-77
2022/07/04 16:51:21;;;;;;;3.00;1.50;;;22.60;99.90;;;;;;20833183;28;20037;-79
2022/07/04 17:01:22;;;;;;;3.80;1.67;;;22.50;99.90;;;;;;20855872;28;20030;-79
2022/07/04 17:11:23;;;;;;;6.07;1.70;;;22.50;99.90;;;;;;20794143;28;20295;-79
2022/07/04 17:21:24;;;;;;;5.87;2.00;;;22.90;99.90;;;;;;20808858;28;20060;-78
2022/07/04 17:31:25;;;;;;;4.82;2.50;;;23.00;99.90;;;;;;20797573;28;20288;-78
2022/07/04 17:41:42;;;;;;;;;;;23.40;99.90;;;;;;20796387;28;20041;-79
2022/07/04 17:51:44;;;;;;;2.60;1.73;;;23.80;99.90;;;;;;20789500;28;20004;-79
2022/07/04 18:01:45;;;;;;;6.88;1.40;;;23.40;99.90;;;;;;20797305;28;20037;-79
2022/07/04 18:11:45;;;;;;;5.53;1.63;;;23.20;99.90;;;;;;20797899;28;20643;-80
2022/07/04 18:21:47;;;;;;;10.30;1.73;;;22.90;99.90;;;;;;20784386;28;20303;-78
2022/07/04 18:31:55;;;;;;;2.85;1.65;;;22.50;99.90;;;;;;20785098;28;20299;-79
2022/07/04 18:52:15;;;;;;;6.40;2.80;;;21.70;99.90;;;;;;20835229;28;20033;-78
2022/07/04 19:02:16;;;;;;;11.93;2.20;;;21.40;99.90;;;;;;20922107;28;20052;-79
2022/07/04 19:12:17;;;;;;;3.30;2.63;;;21.30;99.90;;;;;;20873244;28;20029;-80
2022/07/04 19:22:18;;;;;;;5.70;2.60;;;21.20;99.90;;;;;;20864260;28;20042;-80
2022/07/04 19:32:20;;;;;;;5.90;2.77;;;21.00;99.90;;;;;;20791457;28;20037;-79
2022/07/04 19:42:22;;;;;;;5.43;2.70;;;21.00;99.90;;;;;;20758819;28;20061;-79
2022/07/04 19:52:31;;;;;;;6.18;3.10;;;20.80;99.90;;;;;;20780402;28;20029;-79
2022/07/04 20:02:32;;;;;;;7.13;2.85;;;20.60;99.90;;;;;;20766600;28;20213;-79
2022/07/04 20:12:33;;;;;;;7.18;2.90;;;20.50;99.90;;;;;;20839299;28;20037;-79
2022/07/04 20:22:34;;;;;;;8.60;3.50;;;20.40;99.90;;;;;;20826353;23;20100;-80
2022/07/04 20:32:36;;;;;;;6.07;3.43;;;20.10;99.90;;;;;;20820433;28;20053;-79
2022/07/04 20:42:37;;;;;;;4.68;3.35;;;19.70;99.90;;;;;;20838126;28;20047;-78
2022/07/04 20:52:39;;;;;;;12.73;3.40;;;19.50;99.90;;;;;;20818933;28;20033;-79
2022/07/04 21:02:40;;;;;;;11.25;3.90;;;19.30;99.90;;;;;;20806561;28;20102;-79
2022/07/04 21:12:41;;;;;;;4.80;3.37;;;19.10;99.90;;;;;;20801630;28;20025;-78
2022/07/04 21:22:42;;;;;;;5.53;3.53;;;19.00;99.90;;;;;;20790190;28;20022;-78
2022/07/04 21:32:43;;;;;;;6.60;3.50;;;18.80;99.90;;;;;;20797290;28;20072;-78
2022/07/04 21:42:44;;;;;;;4.15;3.42;;;18.80;99.90;;;;;;20813633;28;20033;-79
2022/07/04 21:52:45;;;;;;;5.97;2.70;;;18.60;99.90;;;;;;20821489;28;20041;-79
2022/07/04 22:02:46;;;;;;;4.82;3.25;;;18.70;99.90;;;;;;20789098;28;20292;-79
2022/07/04 22:12:47;;;;;;;5.87;3.07;;;18.60;99.90;;;;;;20790963;28;20033;-79
2022/07/04 22:22:48;;;;;;;7.03;2.97;;;18.70;99.90;;;;;;20791426;28;20041;-78
2022/07/04 22:32:49;;;;;;;8.53;3.27;;;18.60;99.90;;;;;;20831327;28;20025;-78
2022/07/04 22:42:49;;;;;;;8.20;4.13;;;18.40;99.90;;;;;;20841571;28;20030;-79
2022/07/04 22:52:50;;;;;;;3.97;3.47;;;18.20;99.90;;;;;;20830761;28;20048;-77
2022/07/04 23:02:51;;;;;;;9.07;3.57;;;18.30;99.90;;;;;;20830421;28;20465;-79
2022/07/04 23:12:52;;;;;;;3.50;3.17;;;18.40;99.90;;;;;;20829935;28;20623;-79
2022/07/04 23:22:52;;;;;;;4.30;3.03;;;18.30;99.90;;;;;;20838775;28;20029;-78
2022/07/04 23:32:53;;;;;;;7.00;3.20;;;18.40;99.90;;;;;;20844866;28;20037;-78
2022/07/04 23:42:54;;;;;;;7.00;3.00;;;18.30;99.90;;;;;;20845669;28;20487;-79
2022/07/04 23:52:55;;;;;;;6.50;3.07;;;18.40;99.90;;;;;;20845205;28;20040;-78
